sensor_id;sensor_type;location;lat;lon;timestamp;P1;durP1;ratioP1;P2;durP2;ratioP2
14768;SDS011;7476;49.404;11.152;2023-02-03T00:01:38;5.80;;;4.70;;
14768;SDS011;7476;49.404;11.152;2023-02-03T00:04:04;6.77;;;4.87;;
14768;SDS011;7476;49.404;11.152;2023-02-03T00:06:31;6.50;;;4.57;;
14768;SDS011;7476;49.404;11.152;2023-02-03T00:08:59;5.67;;;4.90;;
14768;SDS011;7476;49.404;11.152;2023-02-03T00:11:27;6.47;;;5.00;;
14768;SDS011;7476;49.404;11.152;2023-02-03T00:13:55;7.07;;;4.87;;
14768;SDS011;7476;49.404;11.152;2023-02-03T00:16:22;5.90;;;4.70;;
14768;SDS011;7476;49.404;11.152;2023-02-03T00:18:48;5.93;;;4.97;;
14768;SDS011;7476;49.404;11.152;2023-02-03T00:21:15;5.53;;;4.80;;
14768;SDS011;7476;49.404;11.152;2023-02-03T00:23:42;5.57;;;4.80;;
14768;SDS011;7476;49.404;11.152;2023-02-03T00:26:11;6.47;;;4.87;;
14768;SDS011;7476;49.404;11.152;2023-02-03T00:28:39;8.23;;;4.63;;
14768;SDS011;7476;49.404;11.152;2023-02-03T00:31:13;7.53;;;5.37;;
14768;SDS011;7476;49.404;11.152;2023-02-03T00:33:40;8.33;;;5.10;;
14768;SDS011;7476;49.404;11.152;2023-02-03T00:36:08;6.30;;;5.20;;
14768;SDS011;7476;49.404;11.152;2023-02-03T00:38:35;6.67;;;5.37;;
14768;SDS011;7476;49.404;11.152;2023-02-03T00:41:01;6.83;;;5.03;;
14768;SDS011;7476;49.404;11.152;2023-02-03T00:43:30;6.03;;;5.20;;
14768;SDS011;7476;49.404;11.152;2023-02-03T00:45:56;7.97;;;5.00;;
14768;SDS011;7476;49.404;11.152;2023-02-03T00:48:23;5.97;;;5.00;;
14768;SDS011;7476;49.404;11.152;2023-02-03T00:50:49;8.23;;;5.33;;
14768;SDS011;7476;49.404;11.152;2023-02-03T00:53:16;7.13;;;5.57;;
14768;SDS011;7476;49.404;11.152;2023-02-03T00:55:43;7.67;;;5.23;;
14768;SDS011;7476;49.404;11.152;2023-02-03T00:58:10;6.07;;;5.23;;
14768;SDS011;7476;49.404;11.152;2023-02-03T01:00:38;6.67;;;5.47;;
14768;SDS011;7476;49.404;11.152;2023-02-03T01:03:04;6.20;;;5.50;;
14768;SDS011;7476;49.404;11.152;2023-02-03T01:05:31;9.77;;;5.77;;
14768;SDS011;7476;49.404;11.152;2023-02-03T01:07:59;7.40;;;6.07;;
14768;SDS011;7476;49.404;11.152;2023-02-03T01:10:26;6.93;;;5.00;;
14768;SDS011;7476;49.404;11.152;2023-02-03T01:12:53;7.47;;;5.87;;
14768;SDS011;7476;49.404;11.152;2023-02-03T01:15:20;6.27;;;5.33;;
14768;SDS011;7476;49.404;11.152;2023-02-03T01:17:47;8.43;;;5.73;;
14768;SDS011;7476;49.404;11.152;2023-02-03T01:20:14;7.87;;;6.00;;
14768;SDS011;7476;49.404;11.152;2023-02-03T01:22:41;6.53;;;5.83;;
14768;SDS011;7476;49.404;11.152;2023-02-03T01:25:08;7.73;;;6.10;;
14768;SDS011;7476;49.404;11.152;2023-02-03T01:27:34;7.73;;;6.03;;
14768;SDS011;7476;49.404;11.152;2023-02-03T01:30:01;8.03;;;6.33;;
14768;SDS011;7476;49.404;11.152;2023-02-03T01:32:28;11.30;;;7.17;;
14768;SDS011;7476;49.404;11.152;2023-02-03T01:34:56;9.57;;;6.90;;
14768;SDS011;7476;49.404;11.152;2023-02-03T01:37:23;8.43;;;6.53;;
14768;SDS011;7476;49.404;11.152;2023-02-03T01:39:49;8.87;;;6.90;;
14768;SDS011;7476;49.404;11.152;2023-02-03T01:42:16;11.40;;;6.63;;
14768;SDS011;7476;49.404;11.152;2023-02-03T01:44:44;13.70;;;7.60;;
14768;SDS011;7476;49.404;11.152;2023-02-03T01:47:17;11.13;;;8.57;;
14768;SDS011;7476;49.404;11.152;2023-02-03T01:49:52;11.73;;;7.80;;
14768;SDS011;7476;49.404;11.152;2023-02-03T01:52:35;10.53;;;7.57;;
14768;SDS011;7476;49.404;11.152;2023-02-03T01:55:04;11.30;;;8.97;;
14768;SDS011;7476;49.404;11.152;2023-02-03T01:57:35;9.63;;;8.17;;
14768;SDS011;7476;49.404;11.152;2023-02-03T02:00:05;11.03;;;7.83;;
14768;SDS011;7476;49.404;11.152;2023-02-03T02:02:33;9.77;;;8.47;;
14768;SDS011;7476;49.404;11.152;2023-02-03T02:05:02;13.73;;;8.73;;
14768;SDS011;7476;49.404;11.152;2023-02-03T02:07:32;12.73;;;8.90;;
14768;SDS011;7476;49.404;11.152;2023-02-03T02:10:01;12.07;;;8.60;;
14768;SDS011;7476;49.404;11.152;2023-02-03T02:12:29;10.97;;;8.43;;
14768;SDS011;7476;49.404;11.152;2023-02-03T02:14:56;12.03;;;8.87;;
14768;SDS011;7476;49.404;11.152;2023-02-03T02:17:27;12.77;;;8.57;;
14768;SDS011;7476;49.404;11.152;2023-02-03T02:20:13;12.70;;;9.20;;
14768;SDS011;7476;49.404;11.152;2023-02-03T02:23:02;13.03;;;9.23;;
14768;SDS011;7476;49.404;11.152;2023-02-03T02:25:47;12.47;;;8.50;;
14768;SDS011;7476;49.404;11.152;2023-02-03T02:28:44;10.47;;;8.37;;
14768;SDS011;7476;49.404;11.152;2023-02-03T02:31:42;12.03;;;8.67;;
14768;SDS011;7476;49.404;11.152;2023-02-03T02:34:18;13.07;;;8.13;;
14768;SDS011;7476;49.404;11.152;2023-02-03T02:36:51;23.00;;;9.70;;
14768;SDS011;7476;49.404;11.152;2023-02-03T02:39:37;13.27;;;8.33;;
14768;SDS011;7476;49.404;11.152;2023-02-03T02:42:20;10.67;;;7.83;;
14768;SDS011;7476;49.404;11.152;2023-02-03T02:44:52;13.80;;;8.10;;
14768;SDS011;7476;49.404;11.152;2023-02-03T02:47:25;12.37;;;7.63;;
14768;SDS011;7476;49.404;11.152;2023-02-03T02:49:53;11.73;;;6.97;;
14768;SDS011;7476;49.404;11.152;2023-02-03T02:52:25;11.13;;;7.20;;
14768;SDS011;7476;49.404;11.152;2023-02-03T02:54:55;12.17;;;7.67;;
14768;SDS011;7476;49.404;11.152;2023-02-03T02:57:26;8.80;;;7.40;;
14768;SDS011;7476;49.404;11.152;2023-02-03T02:59:55;12.27;;;8.03;;
14768;SDS011;7476;49.404;11.152;2023-02-03T03:02:30;12.33;;;8.10;;
14768;SDS011;7476;49.404;11.152;2023-02-03T03:04:57;9.23;;;7.13;;
14768;SDS011;7476;49.404;11.152;2023-02-03T03:07:24;11.43;;;7.73;;
14768;SDS011;7476;49.404;11.152;2023-02-03T03:09:53;12.17;;;7.57;;
14768;SDS011;7476;49.404;11.152;2023-02-03T03:12:23;11.97;;;7.83;;
14768;SDS011;7476;49.404;11.152;2023-02-03T03:14:55;9.47;;;7.40;;
14768;SDS011;7476;49.404;11.152;2023-02-03T03:17:28;10.70;;;7.70;;
14768;SDS011;7476;49.404;11.152;2023-02-03T03:19:59;10.50;;;7.60;;
14768;SDS011;7476;49.404;11.152;2023-02-03T03:22:29;11.03;;;6.70;;
14768;SDS011;7476;49.404;11.152;2023-02-03T03:25:00;11.77;;;7.03;;
14768;SDS011;7476;49.404;11.152;2023-02-03T03:27:32;8.57;;;6.53;;
14768;SDS011;7476;49.404;11.152;2023-02-03T03:30:04;8.37;;;6.53;;
14768;SDS011;7476;49.404;11.152;2023-02-03T03:32:35;7.93;;;6.07;;
14768;SDS011;7476;49.404;11.152;2023-02-03T03:35:03;9.37;;;6.33;;
14768;SDS011;7476;49.404;11.152;2023-02-03T03:37:33;10.13;;;6.53;;
14768;SDS011;7476;49.404;11.152;2023-02-03T03:40:02;6.60;;;5.73;;
14768;SDS011;7476;49.404;11.152;2023-02-03T03:42:34;7.00;;;5.63;;
14768;SDS011;7476;49.404;11.152;2023-02-03T03:45:06;8.43;;;5.63;;
14768;SDS011;7476;49.404;11.152;2023-02-03T03:47:43;6.93;;;5.80;;
14768;SDS011;7476;49.404;11.152;2023-02-03T03:50:16;6.63;;;5.00;;
14768;SDS011;7476;49.404;11.152;2023-02-03T03:52:45;7.77;;;5.60;;
14768;SDS011;7476;49.404;11.152;2023-02-03T03:55:13;6.97;;;5.73;;
14768;SDS011;7476;49.404;11.152;2023-02-03T03:57:42;8.00;;;5.87;;
14768;SDS011;7476;49.404;11.152;2023-02-03T04:00:16;6.33;;;5.37;;
14768;SDS011;7476;49.404;11.152;2023-02-03T04:02:47;7.07;;;5.70;;
14768;SDS011;7476;49.404;11.152;2023-02-03T04:05:17;8.47;;;6.07;;
14768;SDS011;7476;49.404;11.152;2023-02-03T04:07:45;6.90;;;5.23;;
14768;SDS011;7476;49.404;11.152;2023-02-03T04:10:15;7.47;;;5.30;;
14768;SDS011;7476;49.404;11.152;2023-02-03T04:12:48;6.77;;;5.20;;
14768;SDS011;7476;49.404;11.152;2023-02-03T04:15:15;7.30;;;5.03;;
14768;SDS011;7476;49.404;11.152;2023-02-03T04:17:41;6.63;;;5.93;;
14768;SDS011;7476;49.404;11.152;2023-02-03T04:20:10;7.80;;;5.70;;
14768;SDS011;7476;49.404;11.152;2023-02-03T04:22:37;5.70;;;5.10;;
14768;SDS011;7476;49.404;11.152;2023-02-03T04:25:04;7.83;;;5.83;;
14768;SDS011;7476;49.404;11.152;2023-02-03T04:27:32;6.00;;;5.40;;
14768;SDS011;7476;49.404;11.152;2023-02-03T04:29:59;8.50;;;6.10;;
14768;SDS011;7476;49.404;11.152;2023-02-03T04:32:26;10.43;;;5.80;;
14768;SDS011;7476;49.404;11.152;2023-02-03T04:34:53;7.23;;;5.40;;
14768;SDS011;7476;49.404;11.152;2023-02-03T04:37:21;7.67;;;6.10;;
14768;SDS011;7476;49.404;11.152;2023-02-03T04:39:48;7.37;;;5.83;;
14768;SDS011;7476;49.404;11.152;2023-02-03T04:42:16;8.10;;;5.90;;
14768;SDS011;7476;49.404;11.152;2023-02-03T04:44:42;8.23;;;5.50;;
14768;SDS011;7476;49.404;11.152;2023-02-03T04:47:09;6.33;;;5.53;;
14768;SDS011;7476;49.404;11.152;2023-02-03T04:49:36;6.37;;;5.53;;
14768;SDS011;7476;49.404;11.152;2023-02-03T04:52:02;7.53;;;5.20;;
14768;SDS011;7476;49.404;11.152;2023-02-03T04:54:31;6.60;;;5.13;;
14768;SDS011;7476;49.404;11.152;2023-02-03T04:56:58;5.73;;;5.00;;
14768;SDS011;7476;49.404;11.152;2023-02-03T04:59:25;6.53;;;4.50;;
14768;SDS011;7476;49.404;11.152;2023-02-03T05:01:52;8.60;;;5.40;;
14768;SDS011;7476;49.404;11.152;2023-02-03T05:04:19;6.13;;;4.80;;
14768;SDS011;7476;49.404;11.152;2023-02-03T05:06:45;8.07;;;5.10;;
14768;SDS011;7476;49.404;11.152;2023-02-03T05:09:12;5.73;;;4.63;;
14768;SDS011;7476;49.404;11.152;2023-02-03T05:11:40;5.37;;;4.87;;
14768;SDS011;7476;49.404;11.152;2023-02-03T05:14:07;6.07;;;4.70;;
14768;SDS011;7476;49.404;11.152;2023-02-03T05:16:34;4.40;;;3.80;;
14768;SDS011;7476;49.404;11.152;2023-02-03T05:19:00;5.00;;;4.40;;
14768;SDS011;7476;49.404;11.152;2023-02-03T05:21:27;5.87;;;4.80;;
14768;SDS011;7476;49.404;11.152;2023-02-03T05:23:54;5.37;;;4.20;;
14768;SDS011;7476;49.404;11.152;2023-02-03T05:26:20;4.77;;;4.33;;
14768;SDS011;7476;49.404;11.152;2023-02-03T05:28:48;4.60;;;4.10;;
14768;SDS011;7476;49.404;11.152;2023-02-03T05:31:15;6.17;;;4.30;;
14768;SDS011;7476;49.404;11.152;2023-02-03T05:33:42;4.83;;;4.33;;
14768;SDS011;7476;49.404;11.152;2023-02-03T05:36:08;5.57;;;4.50;;
14768;SDS011;7476;49.404;11.152;2023-02-03T05:38:35;4.67;;;4.20;;
14768;SDS011;7476;49.404;11.152;2023-02-03T05:41:02;4.40;;;4.00;;
14768;SDS011;7476;49.404;11.152;2023-02-03T05:43:46;5.37;;;4.23;;
14768;SDS011;7476;49.404;11.152;2023-02-03T05:46:14;5.47;;;4.13;;
14768;SDS011;7476;49.404;11.152;2023-02-03T05:48:41;6.20;;;4.07;;
14768;SDS011;7476;49.404;11.152;2023-02-03T05:51:07;4.10;;;3.70;;
14768;SDS011;7476;49.404;11.152;2023-02-03T05:53:34;4.40;;;4.00;;
14768;SDS011;7476;49.404;11.152;2023-02-03T05:56:01;6.70;;;3.87;;
14768;SDS011;7476;49.404;11.152;2023-02-03T05:58:27;5.07;;;3.87;;
14768;SDS011;7476;49.404;11.152;2023-02-03T06:00:54;3.87;;;3.47;;
14768;SDS011;7476;49.404;11.152;2023-02-03T06:03:22;3.97;;;3.60;;
14768;SDS011;7476;49.404;11.152;2023-02-03T06:05:49;3.93;;;3.30;;
14768;SDS011;7476;49.404;11.152;2023-02-03T06:08:15;5.07;;;3.80;;
14768;SDS011;7476;49.404;11.152;2023-02-03T06:10:42;4.13;;;3.47;;
14768;SDS011;7476;49.404;11.152;2023-02-03T06:13:09;4.00;;;3.70;;
14768;SDS011;7476;49.404;11.152;2023-02-03T06:15:37;6.57;;;3.10;;
14768;SDS011;7476;49.404;11.152;2023-02-03T06:18:04;4.63;;;3.07;;
14768;SDS011;7476;49.404;11.152;2023-02-03T06:20:32;4.20;;;3.00;;
14768;SDS011;7476;49.404;11.152;2023-02-03T06:23:00;3.97;;;3.13;;
14768;SDS011;7476;49.404;11.152;2023-02-03T06:25:27;4.13;;;3.10;;
14768;SDS011;7476;49.404;11.152;2023-02-03T06:27:56;3.27;;;2.77;;
14768;SDS011;7476;49.404;11.152;2023-02-03T06:30:22;3.40;;;2.83;;
14768;SDS011;7476;49.404;11.152;2023-02-03T06:32:49;3.47;;;3.10;;
14768;SDS011;7476;49.404;11.152;2023-02-03T06:35:16;2.50;;;2.30;;
14768;SDS011;7476;49.404;11.152;2023-02-03T06:37:44;3.33;;;2.77;;
14768;SDS011;7476;49.404;11.152;2023-02-03T06:40:11;2.50;;;2.30;;
14768;SDS011;7476;49.404;11.152;2023-02-03T06:42:38;2.60;;;2.40;;
14768;SDS011;7476;49.404;11.152;2023-02-03T06:45:05;3.17;;;2.33;;
14768;SDS011;7476;49.404;11.152;2023-02-03T06:47:33;2.43;;;2.23;;
14768;SDS011;7476;49.404;11.152;2023-02-03T06:50:00;3.57;;;2.40;;
14768;SDS011;7476;49.404;11.152;2023-02-03T06:52:26;2.47;;;2.23;;
14768;SDS011;7476;49.404;11.152;2023-02-03T06:54:54;3.33;;;2.33;;
14768;SDS011;7476;49.404;11.152;2023-02-03T06:57:21;3.10;;;2.80;;
14768;SDS011;7476;49.404;11.152;2023-02-03T06:59:48;2.63;;;2.43;;
14768;SDS011;7476;49.404;11.152;2023-02-03T07:02:14;2.87;;;2.67;;
14768;SDS011;7476;49.404;11.152;2023-02-03T07:04:41;2.87;;;2.63;;
14768;SDS011;7476;49.404;11.152;2023-02-03T07:07:09;2.70;;;2.50;;
14768;SDS011;7476;49.404;11.152;2023-02-03T07:09:36;3.17;;;2.20;;
14768;SDS011;7476;49.404;11.152;2023-02-03T07:12:04;2.23;;;2.03;;
14768;SDS011;7476;49.404;11.152;2023-02-03T07:14:31;2.40;;;2.20;;
14768;SDS011;7476;49.404;11.152;2023-02-03T07:17:00;3.90;;;2.47;;
14768;SDS011;7476;49.404;11.152;2023-02-03T07:19:27;2.50;;;2.30;;
14768;SDS011;7476;49.404;11.152;2023-02-03T07:21:54;2.20;;;2.00;;
14768;SDS011;7476;49.404;11.152;2023-02-03T07:24:21;2.30;;;2.10;;
14768;SDS011;7476;49.404;11.152;2023-02-03T07:26:47;4.70;;;3.13;;
14768;SDS011;7476;49.404;11.152;2023-02-03T07:29:15;2.93;;;2.57;;
14768;SDS011;7476;49.404;11.152;2023-02-03T07:31:42;2.43;;;2.23;;
14768;SDS011;7476;49.404;11.152;2023-02-03T07:34:09;2.60;;;2.40;;
14768;SDS011;7476;49.404;11.152;2023-02-03T07:36:35;2.73;;;2.50;;
14768;SDS011;7476;49.404;11.152;2023-02-03T07:39:02;2.40;;;2.20;;
14768;SDS011;7476;49.404;11.152;2023-02-03T07:41:29;3.80;;;2.70;;
14768;SDS011;7476;49.404;11.152;2023-02-03T07:43:55;2.37;;;2.17;;
14768;SDS011;7476;49.404;11.152;2023-02-03T07:46:23;4.77;;;2.23;;
14768;SDS011;7476;49.404;11.152;2023-02-03T07:48:50;2.60;;;2.40;;
14768;SDS011;7476;49.404;11.152;2023-02-03T07:51:17;2.63;;;2.43;;
14768;SDS011;7476;49.404;11.152;2023-02-03T07:53:44;3.17;;;2.87;;
14768;SDS011;7476;49.404;11.152;2023-02-03T07:56:10;3.93;;;2.50;;
14768;SDS011;7476;49.404;11.152;2023-02-03T07:58:37;3.00;;;2.47;;
14768;SDS011;7476;49.404;11.152;2023-02-03T08:01:08;3.40;;;2.77;;
14768;SDS011;7476;49.404;11.152;2023-02-03T08:03:37;3.90;;;2.70;;
14768;SDS011;7476;49.404;11.152;2023-02-03T08:06:04;2.73;;;2.53;;
14768;SDS011;7476;49.404;11.152;2023-02-03T08:08:31;2.60;;;2.40;;
14768;SDS011;7476;49.404;11.152;2023-02-03T08:10:58;3.30;;;2.60;;
14768;SDS011;7476;49.404;11.152;2023-02-03T08:13:25;3.93;;;2.60;;
14768;SDS011;7476;49.404;11.152;2023-02-03T08:15:52;3.30;;;2.80;;
14768;SDS011;7476;49.404;11.152;2023-02-03T08:18:19;2.70;;;2.50;;
14768;SDS011;7476;49.404;11.152;2023-02-03T08:20:47;2.93;;;2.67;;
14768;SDS011;7476;49.404;11.152;2023-02-03T08:23:14;2.67;;;2.20;;
14768;SDS011;7476;49.404;11.152;2023-02-03T08:25:41;3.07;;;2.37;;
14768;SDS011;7476;49.404;11.152;2023-02-03T08:28:08;3.07;;;2.40;;
14768;SDS011;7476;49.404;11.152;2023-02-03T08:30:35;2.20;;;2.00;;
14768;SDS011;7476;49.404;11.152;2023-02-03T08:33:01;2.20;;;2.00;;
14768;SDS011;7476;49.404;11.152;2023-02-03T08:35:28;4.57;;;2.53;;
14768;SDS011;7476;49.404;11.152;2023-02-03T08:37:56;3.57;;;2.37;;
14768;SDS011;7476;49.404;11.152;2023-02-03T08:40:23;2.53;;;2.10;;
14768;SDS011;7476;49.404;11.152;2023-02-03T08:42:49;2.93;;;2.07;;
14768;SDS011;7476;49.404;11.152;2023-02-03T08:45:16;2.20;;;2.00;;
14768;SDS011;7476;49.404;11.152;2023-02-03T08:47:43;2.30;;;2.10;;
14768;SDS011;7476;49.404;11.152;2023-02-03T08:50:09;2.40;;;2.20;;
14768;SDS011;7476;49.404;11.152;2023-02-03T08:52:37;2.97;;;2.00;;
14768;SDS011;7476;49.404;11.152;2023-02-03T08:55:06;2.67;;;2.00;;
14768;SDS011;7476;49.404;11.152;2023-02-03T08:57:33;2.67;;;2.30;;
14768;SDS011;7476;49.404;11.152;2023-02-03T09:00:02;2.77;;;2.50;;
14768;SDS011;7476;49.404;11.152;2023-02-03T09:02:30;2.97;;;2.20;;
14768;SDS011;7476;49.404;11.152;2023-02-03T09:04:56;2.43;;;2.23;;
14768;SDS011;7476;49.404;11.152;2023-02-03T09:07:23;3.30;;;2.00;;
14768;SDS011;7476;49.404;11.152;2023-02-03T09:09:50;2.27;;;1.97;;
14768;SDS011;7476;49.404;11.152;2023-02-03T09:12:18;2.37;;;2.17;;
14768;SDS011;7476;49.404;11.152;2023-02-03T09:14:46;2.40;;;2.20;;
14768;SDS011;7476;49.404;11.152;2023-02-03T09:17:13;2.77;;;2.10;;
14768;SDS011;7476;49.404;11.152;2023-02-03T09:19:40;3.40;;;2.13;;
14768;SDS011;7476;49.404;11.152;2023-02-03T09:22:06;3.10;;;1.97;;
14768;SDS011;7476;49.404;11.152;2023-02-03T09:24:33;3.00;;;2.20;;
14768;SDS011;7476;49.404;11.152;2023-02-03T09:26:59;2.30;;;1.90;;
14768;SDS011;7476;49.404;11.152;2023-02-03T09:29:27;2.90;;;2.13;;
14768;SDS011;7476;49.404;11.152;2023-02-03T09:31:54;2.30;;;2.00;;
14768;SDS011;7476;49.404;11.152;2023-02-03T09:34:21;2.43;;;2.20;;
14768;SDS011;7476;49.404;11.152;2023-02-03T09:36:47;2.60;;;2.40;;
14768;SDS011;7476;49.404;11.152;2023-02-03T09:39:15;4.10;;;2.20;;
14768;SDS011;7476;49.404;11.152;2023-02-03T09:41:49;2.43;;;2.23;;
14768;SDS011;7476;49.404;11.152;2023-02-03T09:44:28;2.50;;;2.30;;
14768;SDS011;7476;49.404;11.152;2023-02-03T09:47:01;4.00;;;2.23;;
14768;SDS011;7476;49.404;11.152;2023-02-03T09:49:32;2.87;;;2.40;;
14768;SDS011;7476;49.404;11.152;2023-02-03T09:52:06;3.40;;;2.13;;
14768;SDS011;7476;49.404;11.152;2023-02-03T09:54:38;2.40;;;2.20;;
14768;SDS011;7476;49.404;11.152;2023-02-03T09:57:12;2.90;;;2.27;;
14768;SDS011;7476;49.404;11.152;2023-02-03T09:59:44;3.13;;;2.30;;
14768;SDS011;7476;49.404;11.152;2023-02-03T10:02:15;3.83;;;2.43;;
14768;SDS011;7476;49.404;11.152;2023-02-03T10:04:51;3.17;;;2.30;;
14768;SDS011;7476;49.404;11.152;2023-02-03T10:07:24;3.50;;;2.17;;
14768;SDS011;7476;49.404;11.152;2023-02-03T10:09:59;2.80;;;2.50;;
14768;SDS011;7476;49.404;11.152;2023-02-03T10:12:45;3.03;;;2.57;;
14768;SDS011;7476;49.404;11.152;2023-02-03T10:15:38;2.50;;;2.30;;
14768;SDS011;7476;49.404;11.152;2023-02-03T10:18:22;2.40;;;2.20;;
14768;SDS011;7476;49.404;11.152;2023-02-03T10:20:54;2.40;;;2.20;;
14768;SDS011;7476;49.404;11.152;2023-02-03T10:23:26;2.50;;;2.07;;
14768;SDS011;7476;49.404;11.152;2023-02-03T10:25:55;2.77;;;1.90;;
14768;SDS011;7476;49.404;11.152;2023-02-03T10:28:27;2.37;;;2.10;;
14768;SDS011;7476;49.404;11.152;2023-02-03T10:30:58;2.10;;;1.90;;
14768;SDS011;7476;49.404;11.152;2023-02-03T10:33:29;2.13;;;1.83;;
14768;SDS011;7476;49.404;11.152;2023-02-03T10:35:59;2.00;;;1.80;;
14768;SDS011;7476;49.404;11.152;2023-02-03T10:38:38;4.40;;;2.00;;
14768;SDS011;7476;49.404;11.152;2023-02-03T10:41:13;3.50;;;2.07;;
14768;SDS011;7476;49.404;11.152;2023-02-03T10:43:41;1.83;;;1.73;;
14768;SDS011;7476;49.404;11.152;2023-02-03T10:46:17;2.20;;;2.00;;
14768;SDS011;7476;49.404;11.152;2023-02-03T10:48:46;3.83;;;2.03;;
14768;SDS011;7476;49.404;11.152;2023-02-03T10:51:17;2.33;;;2.13;;
14768;SDS011;7476;49.404;11.152;2023-02-03T10:53:46;2.23;;;1.87;;
14768;SDS011;7476;49.404;11.152;2023-02-03T10:56:17;2.13;;;1.90;;
14768;SDS011;7476;49.404;11.152;2023-02-03T10:58:47;2.23;;;2.03;;
14768;SDS011;7476;49.404;11.152;2023-02-03T11:01:16;2.40;;;2.20;;
14768;SDS011;7476;49.404;11.152;2023-02-03T11:03:52;1.90;;;1.80;;
14768;SDS011;7476;49.404;11.152;2023-02-03T11:06:22;2.37;;;2.17;;
14768;SDS011;7476;49.404;11.152;2023-02-03T11:08:49;2.30;;;2.10;;
14768;SDS011;7476;49.404;11.152;2023-02-03T11:11:19;3.23;;;2.30;;
14768;SDS011;7476;49.404;11.152;2023-02-03T11:13:51;3.57;;;2.13;;
14768;SDS011;7476;49.404;11.152;2023-02-03T11:16:19;2.67;;;2.20;;
14768;SDS011;7476;49.404;11.152;2023-02-03T11:18:53;4.53;;;2.20;;
14768;SDS011;7476;49.404;11.152;2023-02-03T11:21:21;3.67;;;2.23;;
14768;SDS011;7476;49.404;11.152;2023-02-03T11:23:51;5.03;;;2.20;;
14768;SDS011;7476;49.404;11.152;2023-02-03T11:26:22;2.77;;;2.23;;
14768;SDS011;7476;49.404;11.152;2023-02-03T11:28:53;5.10;;;2.60;;
14768;SDS011;7476;49.404;11.152;2023-02-03T11:31:24;2.77;;;2.17;;
14768;SDS011;7476;49.404;11.152;2023-02-03T11:33:54;2.80;;;2.40;;
14768;SDS011;7476;49.404;11.152;2023-02-03T11:36:24;3.07;;;2.50;;
14768;SDS011;7476;49.404;11.152;2023-02-03T11:41:42;2.57;;;2.30;;
14768;SDS011;7476;49.404;11.152;2023-02-03T11:44:10;2.83;;;2.50;;
14768;SDS011;7476;49.404;11.152;2023-02-03T11:46:42;2.33;;;2.13;;
14768;SDS011;7476;49.404;11.152;2023-02-03T11:49:13;4.77;;;2.27;;
14768;SDS011;7476;49.404;11.152;2023-02-03T11:52:14;3.47;;;2.20;;
14768;SDS011;7476;49.404;11.152;2023-02-03T11:54:53;4.50;;;2.17;;
14768;SDS011;7476;49.404;11.152;2023-02-03T11:57:32;2.83;;;2.50;;
14768;SDS011;7476;49.404;11.152;2023-02-03T12:00:10;2.50;;;2.07;;
14768;SDS011;7476;49.404;11.152;2023-02-03T12:05:59;2.17;;;2.00;;
14768;SDS011;7476;49.404;11.152;2023-02-03T12:08:39;2.30;;;2.10;;
14768;SDS011;7476;49.404;11.152;2023-02-03T12:11:17;4.07;;;2.10;;
14768;SDS011;7476;49.404;11.152;2023-02-03T12:13:56;2.10;;;1.97;;
14768;SDS011;7476;49.404;11.152;2023-02-03T12:16:37;2.37;;;1.80;;
14768;SDS011;7476;49.404;11.152;2023-02-03T12:19:13;3.20;;;2.20;;
14768;SDS011;7476;49.404;11.152;2023-02-03T12:21:49;2.87;;;2.07;;
14768;SDS011;7476;49.404;11.152;2023-02-03T12:24:22;2.60;;;2.00;;
14768;SDS011;7476;49.404;11.152;2023-02-03T12:26:58;3.03;;;2.00;;
14768;SDS011;7476;49.404;11.152;2023-02-03T12:29:37;2.67;;;1.70;;
14768;SDS011;7476;49.404;11.152;2023-02-03T12:32:10;2.83;;;2.20;;
14768;SDS011;7476;49.404;11.152;2023-02-03T12:34:41;2.53;;;2.20;;
14768;SDS011;7476;49.404;11.152;2023-02-03T12:37:17;2.00;;;1.80;;
14768;SDS011;7476;49.404;11.152;2023-02-03T12:39:49;2.20;;;2.00;;
14768;SDS011;7476;49.404;11.152;2023-02-03T12:42:18;2.13;;;1.90;;
14768;SDS011;7476;49.404;11.152;2023-02-03T12:44:47;1.83;;;1.50;;
14768;SDS011;7476;49.404;11.152;2023-02-03T12:47:21;3.93;;;2.07;;
14768;SDS011;7476;49.404;11.152;2023-02-03T12:49:53;1.90;;;1.67;;
14768;SDS011;7476;49.404;11.152;2023-02-03T12:52:25;1.90;;;1.80;;
14768;SDS011;7476;49.404;11.152;2023-02-03T12:54:58;1.87;;;1.70;;
14768;SDS011;7476;49.404;11.152;2023-02-03T12:57:35;2.07;;;1.77;;
14768;SDS011;7476;49.404;11.152;2023-02-03T13:00:08;3.40;;;1.50;;
14768;SDS011;7476;49.404;11.152;2023-02-03T13:02:44;1.80;;;1.70;;
14768;SDS011;7476;49.404;11.152;2023-02-03T13:05:19;1.60;;;1.50;;
14768;SDS011;7476;49.404;11.152;2023-02-03T13:07:52;1.80;;;1.70;;
14768;SDS011;7476;49.404;11.152;2023-02-03T13:10:25;2.33;;;1.60;;
14768;SDS011;7476;49.404;11.152;2023-02-03T13:12:57;2.03;;;1.60;;
14768;SDS011;7476;49.404;11.152;2023-02-03T13:15:25;2.43;;;1.90;;
14768;SDS011;7476;49.404;11.152;2023-02-03T13:17:56;1.60;;;1.50;;
14768;SDS011;7476;49.404;11.152;2023-02-03T13:20:26;2.57;;;1.60;;
14768;SDS011;7476;49.404;11.152;2023-02-03T13:22:56;1.83;;;1.67;;
14768;SDS011;7476;49.404;11.152;2023-02-03T13:25:24;1.87;;;1.60;;
14768;SDS011;7476;49.404;11.152;2023-02-03T13:27:58;1.80;;;1.30;;
14768;SDS011;7476;49.404;11.152;2023-02-03T13:33:49;1.60;;;1.50;;
14768;SDS011;7476;49.404;11.152;2023-02-03T13:36:33;1.77;;;1.53;;
14768;SDS011;7476;49.404;11.152;2023-02-03T13:39:37;1.73;;;1.60;;
14768;SDS011;7476;49.404;11.152;2023-02-03T13:42:18;1.83;;;1.50;;
14768;SDS011;7476;49.404;11.152;2023-02-03T13:44:48;1.47;;;1.37;;
14768;SDS011;7476;49.404;11.152;2023-02-03T13:47:18;1.43;;;1.33;;
14768;SDS011;7476;49.404;11.152;2023-02-03T13:49:48;1.50;;;1.40;;
14768;SDS011;7476;49.404;11.152;2023-02-03T13:52:24;1.40;;;1.30;;
14768;SDS011;7476;49.404;11.152;2023-02-03T13:54:56;1.43;;;1.33;;
14768;SDS011;7476;49.404;11.152;2023-02-03T13:57:25;2.70;;;1.70;;
14768;SDS011;7476;49.404;11.152;2023-02-03T13:59:58;1.70;;;1.60;;
14768;SDS011;7476;49.404;11.152;2023-02-03T14:20:33;1.67;;;1.57;;
14768;SDS011;7476;49.404;11.152;2023-02-03T14:23:45;1.97;;;1.80;;
14768;SDS011;7476;49.404;11.152;2023-02-03T14:26:19;1.80;;;1.70;;
14768;SDS011;7476;49.404;11.152;2023-02-03T14:28:54;1.73;;;1.63;;
14768;SDS011;7476;49.404;11.152;2023-02-03T14:31:22;1.80;;;1.50;;
14768;SDS011;7476;49.404;11.152;2023-02-03T14:33:50;1.70;;;1.60;;
14768;SDS011;7476;49.404;11.152;2023-02-03T14:42:22;1.80;;;1.70;;
14768;SDS011;7476;49.404;11.152;2023-02-03T14:45:05;1.67;;;1.57;;
14768;SDS011;7476;49.404;11.152;2023-02-03T14:47:45;1.60;;;1.50;;
14768;SDS011;7476;49.404;11.152;2023-02-03T14:50:27;1.73;;;1.60;;
14768;SDS011;7476;49.404;11.152;2023-02-03T14:53:04;1.47;;;1.37;;
14768;SDS011;7476;49.404;11.152;2023-02-03T14:55:44;1.60;;;1.50;;
14768;SDS011;7476;49.404;11.152;2023-02-03T14:58:20;1.57;;;1.47;;
14768;SDS011;7476;49.404;11.152;2023-02-03T15:00:54;1.50;;;1.40;;
14768;SDS011;7476;49.404;11.152;2023-02-03T15:03:22;1.73;;;1.30;;
14768;SDS011;7476;49.404;11.152;2023-02-03T15:05:55;1.40;;;1.30;;
14768;SDS011;7476;49.404;11.152;2023-02-03T15:08:32;1.50;;;1.40;;
14768;SDS011;7476;49.404;11.152;2023-02-03T15:11:20;1.73;;;1.47;;
14768;SDS011;7476;49.404;11.152;2023-02-03T15:13:50;1.33;;;1.23;;
14768;SDS011;7476;49.404;11.152;2023-02-03T15:16:19;2.13;;;1.47;;
14768;SDS011;7476;49.404;11.152;2023-02-03T15:18:52;1.50;;;1.40;;
14768;SDS011;7476;49.404;11.152;2023-02-03T15:21:20;1.40;;;1.30;;
14768;SDS011;7476;49.404;11.152;2023-02-03T15:23:47;1.50;;;1.40;;
14768;SDS011;7476;49.404;11.152;2023-02-03T15:26:16;1.30;;;1.20;;
14768;SDS011;7476;49.404;11.152;2023-02-03T15:28:52;1.67;;;1.40;;
14768;SDS011;7476;49.404;11.152;2023-02-03T15:31:21;1.50;;;1.40;;
14768;SDS011;7476;49.404;11.152;2023-02-03T15:33:55;1.63;;;1.53;;
14768;SDS011;7476;49.404;11.152;2023-02-03T15:36:26;1.60;;;1.50;;
14768;SDS011;7476;49.404;11.152;2023-02-03T15:39:05;2.00;;;1.90;;